createdAt,value
2023-01-21T00:00:06.104Z,14.55
2023-01-21T00:01:09.349Z,13.90
2023-01-21T00:02:12.960Z,14.02
2023-01-21T00:03:16.607Z,15.82
2023-01-21T00:04:19.550Z,13.45
2023-01-21T00:05:22.194Z,14.23
2023-01-21T00:06:24.715Z,14.93
2023-01-21T00:07:27.299Z,15.07
2023-01-21T00:08:30.052Z,16.40
2023-01-21T00:09:33.047Z,15.57
2023-01-21T00:10:35.519Z,15.90
2023-01-21T00:11:38.091Z,15.55
2023-01-21T00:12:40.611Z,18.15
2023-01-21T00:13:44.301Z,17.00
2023-01-21T00:14:46.930Z,16.38
2023-01-21T00:15:49.517Z,15.15
2023-01-21T00:16:51.990Z,17.05
2023-01-21T00:17:54.927Z,17.50
2023-01-21T00:18:57.613Z,19.15
2023-01-21T00:20:00.190Z,19.05
2023-01-21T00:21:03.301Z,18.13
2023-01-21T00:22:05.791Z,18.63
2023-01-21T00:23:08.336Z,17.83
2023-01-21T00:24:10.821Z,18.13
2023-01-21T00:25:13.375Z,16.42
2023-01-21T00:26:16.018Z,18.65
2023-01-21T00:27:18.538Z,20.58
2023-01-21T00:28:21.058Z,18.30
2023-01-21T00:29:23.701Z,17.00
2023-01-21T00:30:26.225Z,18.17
2023-01-21T00:31:28.838Z,18.63
2023-01-21T00:32:31.381Z,17.13
2023-01-21T00:33:34.987Z,17.40
2023-01-21T00:34:37.622Z,17.10
2023-01-21T00:35:42.287Z,19.02
2023-01-21T00:36:44.836Z,16.85
2023-01-21T00:37:47.349Z,16.70
2023-01-21T00:38:50.001Z,18.80
2023-01-21T00:39:52.506Z,16.02
2023-01-21T00:41:03.671Z,15.70
2023-01-21T00:42:06.428Z,16.40
2023-01-21T00:43:08.948Z,18.30
2023-01-21T00:44:11.475Z,15.73
2023-01-21T00:45:14.117Z,17.02
2023-01-21T00:46:17.009Z,16.33
2023-01-21T00:47:19.873Z,15.85
2023-01-21T00:48:22.512Z,16.63
2023-01-21T00:49:25.039Z,16.52
2023-01-21T00:50:27.560Z,15.38
2023-01-21T00:51:30.075Z,17.88
2023-01-21T00:52:32.605Z,16.92
2023-01-21T00:53:38.253Z,17.08
2023-01-21T00:54:40.763Z,15.45
2023-01-21T00:55:43.287Z,17.77
2023-01-21T00:56:45.917Z,17.80
2023-01-21T00:57:48.438Z,15.45
2023-01-21T00:58:50.963Z,17.42
2023-01-21T00:59:53.718Z,16.30
2023-01-21T01:01:11.634Z,15.15
2023-01-21T01:02:14.249Z,15.52
2023-01-21T01:03:16.767Z,15.73
2023-01-21T01:04:20.135Z,17.73
2023-01-21T01:05:22.649Z,15.27
2023-01-21T01:06:25.177Z,15.05
2023-01-21T01:07:27.819Z,14.70
2023-01-21T01:08:30.463Z,14.63
2023-01-21T01:09:33.098Z,13.75
2023-01-21T01:10:37.898Z,15.85
2023-01-21T01:11:40.419Z,17.30
2023-01-21T01:12:43.981Z,15.25
2023-01-21T01:13:46.664Z,14.77
2023-01-21T01:14:49.314Z,14.02
2023-01-21T01:15:56.106Z,14.18
2023-01-21T01:16:58.794Z,16.23
2023-01-21T01:18:01.550Z,16.15
2023-01-21T01:19:04.311Z,15.82
2023-01-21T01:20:07.795Z,14.15
2023-01-21T01:21:13.436Z,14.60
2023-01-21T01:22:16.438Z,15.05
2023-01-21T01:23:19.678Z,14.70
2023-01-21T01:24:22.564Z,16.40
2023-01-21T01:25:25.465Z,15.55
2023-01-21T01:26:28.564Z,14.93
2023-01-21T01:27:31.575Z,15.18
2023-01-21T01:28:34.973Z,16.63
2023-01-21T01:29:38.053Z,15.48
2023-01-21T01:30:41.204Z,14.65
2023-01-21T01:31:44.590Z,14.90
2023-01-21T01:32:47.654Z,14.55
2023-01-21T01:33:50.778Z,15.27
2023-01-21T01:34:53.904Z,15.27
2023-01-21T01:36:05.561Z,16.38
2023-01-21T01:37:08.664Z,15.48
2023-01-21T01:38:12.024Z,13.73
2023-01-21T01:39:15.269Z,14.65
2023-01-21T01:40:18.695Z,15.20
2023-01-21T01:41:27.850Z,14.57
2023-01-21T01:42:31.112Z,13.90
2023-01-21T01:43:53.826Z,14.35
2023-01-21T01:45:02.919Z,14.68
2023-01-21T01:46:06.074Z,14.00
2023-01-21T01:47:09.280Z,17.38
2023-01-21T01:48:18.280Z,15.23
2023-01-21T01:49:22.129Z,13.77
2023-01-21T01:50:29.213Z,13.85
2023-01-21T01:51:57.532Z,13.63
2023-01-21T01:53:01.868Z,14.75
2023-01-21T01:54:06.181Z,16.55
2023-01-21T01:55:11.340Z,13.77
2023-01-21T01:56:16.252Z,15.18
2023-01-21T01:57:22.855Z,15.15
2023-01-21T01:58:25.979Z,14.68
2023-01-21T01:59:30.790Z,11.88
2023-01-21T02:00:35.340Z,14.55
2023-01-21T02:01:38.363Z,14.02
2023-01-21T02:02:43.196Z,15.50
2023-01-21T02:03:53.225Z,15.55
2023-01-21T02:04:59.588Z,14.32
2023-01-21T02:06:03.201Z,14.35
2023-01-21T02:07:06.071Z,14.90
2023-01-21T02:08:09.609Z,15.15
2023-01-21T02:09:12.372Z,14.00
2023-01-21T02:10:19.982Z,13.25
2023-01-21T02:11:22.815Z,15.80
2023-01-21T02:12:25.759Z,14.95
2023-01-21T02:13:31.761Z,13.98
2023-01-21T02:14:42.870Z,14.75
2023-01-21T02:16:16.024Z,13.75
2023-01-21T02:17:43.647Z,12.80
2023-01-21T02:18:55.053Z,12.25
2023-01-21T02:20:16.215Z,14.68
2023-01-21T02:21:37.415Z,12.85
2023-01-21T02:23:07.815Z,12.45
2023-01-21T02:24:34.590Z,14.20
2023-01-21T02:25:36.976Z,14.98
2023-01-21T02:26:45.382Z,14.55
2023-01-21T02:27:55.062Z,13.75
2023-01-21T02:29:23.180Z,11.93
2023-01-21T02:30:47.685Z,12.70
2023-01-21T02:32:05.059Z,9.55
2023-01-21T02:33:23.676Z,14.35
2023-01-21T02:34:34.926Z,13.63
2023-01-21T02:35:48.262Z,13.27
2023-01-21T02:37:02.061Z,13.25
2023-01-21T02:38:16.104Z,13.70
2023-01-21T02:39:57.393Z,13.05
2023-01-21T02:41:25.704Z,13.00
2023-01-21T02:42:58.710Z,11.02
2023-01-21T02:44:13.348Z,11.43
2023-01-21T02:45:39.406Z,14.13
2023-01-21T02:46:47.595Z,13.95
2023-01-21T02:47:57.045Z,15.50
2023-01-21T02:49:07.486Z,13.32
2023-01-21T02:50:19.104Z,15.52
2023-01-21T02:51:23.319Z,12.40
2023-01-21T02:52:26.554Z,13.43
2023-01-21T02:53:34.599Z,12.60
2023-01-21T02:54:40.304Z,14.23
2023-01-21T02:55:43.607Z,14.90
2023-01-21T02:56:46.235Z,14.85
2023-01-21T02:57:53.077Z,13.60
2023-01-21T02:58:59.796Z,13.73
2023-01-21T03:00:08.201Z,14.70
2023-01-21T03:01:46.760Z,13.63
2023-01-21T03:02:52.121Z,12.13
2023-01-21T03:04:25.483Z,15.32
2023-01-21T03:05:49.367Z,13.50
2023-01-21T03:07:12.051Z,13.52
2023-01-21T03:08:30.538Z,14.13
2023-01-21T03:09:34.381Z,13.60
2023-01-21T03:10:44.456Z,13.27
2023-01-21T03:11:56.821Z,14.32
2023-01-21T03:13:07.139Z,12.77
2023-01-21T03:14:39.062Z,14.43
2023-01-21T03:16:12.860Z,13.88
2023-01-21T03:17:33.670Z,11.65
2023-01-21T03:18:45.454Z,12.80
2023-01-21T03:20:07.529Z,12.80
2023-01-21T03:21:17.232Z,12.90
2023-01-21T03:22:24.794Z,11.30
2023-01-21T03:23:34.396Z,12.85
2023-01-21T03:24:40.884Z,15.68
2023-01-21T03:25:46.402Z,14.18
2023-01-21T03:26:53.964Z,12.75
2023-01-21T03:27:58.812Z,13.95
2023-01-21T03:29:10.287Z,16.55
2023-01-21T03:30:19.162Z,15.43
2023-01-21T03:31:28.509Z,16.02
2023-01-21T03:32:35.130Z,15.32
2023-01-21T03:33:41.023Z,14.48
2023-01-21T03:34:51.454Z,16.10
2023-01-21T03:35:56.259Z,13.73
2023-01-21T03:37:08.384Z,13.25
2023-01-21T03:38:17.506Z,13.00
2023-01-21T03:39:56.148Z,14.90
2023-01-21T03:41:06.225Z,13.95
2023-01-21T03:42:10.064Z,13.63
2023-01-21T03:43:13.308Z,16.30
2023-01-21T03:44:17.035Z,14.18
2023-01-21T03:45:36.973Z,14.63
2023-01-21T03:47:14.516Z,13.77
2023-01-21T03:48:25.436Z,13.23
2023-01-21T03:50:14.919Z,14.60
2023-01-21T03:51:28.200Z,13.88
2023-01-21T03:52:31.931Z,14.90
2023-01-21T03:53:35.172Z,13.70
2023-01-21T03:54:39.368Z,14.10
2023-01-21T03:55:42.611Z,15.18
2023-01-21T03:56:45.738Z,15.95
2023-01-21T03:57:49.092Z,14.27
2023-01-21T03:58:52.214Z,14.95
2023-01-21T03:59:56.657Z,15.63
2023-01-21T04:01:00.070Z,14.82
2023-01-21T04:02:03.239Z,12.48
2023-01-21T04:03:06.147Z,14.95
2023-01-21T04:04:10.581Z,14.85
2023-01-21T04:05:14.422Z,13.50
2023-01-21T04:06:23.105Z,12.95
2023-01-21T04:07:25.948Z,13.25
2023-01-21T04:08:28.604Z,14.27
2023-01-21T04:09:31.164Z,14.93
2023-01-21T04:10:33.753Z,14.65
2023-01-21T04:11:36.332Z,14.38
2023-01-21T04:12:38.971Z,12.70
2023-01-21T04:13:41.810Z,13.85
2023-01-21T04:14:44.492Z,13.90
2023-01-21T04:15:47.130Z,12.93
2023-01-21T04:16:49.655Z,14.90
2023-01-21T04:17:52.370Z,12.55
2023-01-21T04:18:55.182Z,12.80
2023-01-21T04:19:57.811Z,13.55
2023-01-21T04:21:00.454Z,13.23
2023-01-21T04:22:03.056Z,12.70
2023-01-21T04:23:05.693Z,12.45
2023-01-21T04:24:08.255Z,12.02
2023-01-21T04:25:10.780Z,11.10
2023-01-21T04:26:13.421Z,12.77
2023-01-21T04:27:15.900Z,12.77
2023-01-21T04:28:19.536Z,13.80
2023-01-21T04:29:22.059Z,12.35
2023-01-21T04:30:24.586Z,14.15
2023-01-21T04:31:27.103Z,12.55
2023-01-21T04:32:29.739Z,11.35
2023-01-21T04:33:32.258Z,11.75
2023-01-21T04:34:34.785Z,11.88
2023-01-21T04:35:37.422Z,12.32
2023-01-21T04:36:39.957Z,13.05
2023-01-21T04:37:42.481Z,10.50
2023-01-21T04:38:44.986Z,11.85
2023-01-21T04:39:47.505Z,12.60
2023-01-21T04:40:50.031Z,10.63
2023-01-21T04:41:52.666Z,11.00
2023-01-21T04:42:55.187Z,11.93
2023-01-21T04:43:57.717Z,11.95
2023-01-21T04:45:00.348Z,11.40
2023-01-21T04:46:03.026Z,12.80
2023-01-21T04:47:05.641Z,11.50
2023-01-21T04:48:08.271Z,13.05
2023-01-21T04:49:10.798Z,11.93
2023-01-21T04:50:14.803Z,10.70
2023-01-21T04:51:17.465Z,12.90
2023-01-21T04:52:20.156Z,11.25
2023-01-21T04:53:22.681Z,11.38
2023-01-21T04:54:25.317Z,11.98
2023-01-21T04:55:27.957Z,12.48
2023-01-21T04:56:30.479Z,11.73
2023-01-21T04:57:32.996Z,11.10
2023-01-21T04:58:35.524Z,10.63
2023-01-21T04:59:38.159Z,11.18
2023-01-21T05:00:40.680Z,11.13
2023-01-21T05:01:43.101Z,11.32
2023-01-21T05:02:45.608Z,11.23
2023-01-21T05:03:48.124Z,11.43
2023-01-21T05:04:50.644Z,12.00
2023-01-21T05:05:53.176Z,11.75
2023-01-21T05:06:56.286Z,15.32
2023-01-21T05:07:58.807Z,12.55
2023-01-21T05:09:01.329Z,11.98
2023-01-21T05:10:03.980Z,11.90
2023-01-21T05:11:09.513Z,12.05
2023-01-21T05:12:12.014Z,11.68
2023-01-21T05:13:14.537Z,11.57
2023-01-21T05:14:17.178Z,12.65
2023-01-21T05:15:19.958Z,10.50
2023-01-21T05:16:23.281Z,11.13
2023-01-21T05:17:26.549Z,12.27
2023-01-21T05:18:29.064Z,10.90
2023-01-21T05:19:31.587Z,12.10
2023-01-21T05:20:34.348Z,9.50
2023-01-21T05:21:36.868Z,11.05
2023-01-21T05:22:39.635Z,12.23
2023-01-21T05:23:42.401Z,11.10
2023-01-21T05:24:45.285Z,11.95
2023-01-21T05:25:49.368Z,11.60
2023-01-21T05:26:52.360Z,11.85
2023-01-21T05:27:55.603Z,11.75
2023-01-21T05:28:58.609Z,11.27
2023-01-21T05:30:01.616Z,12.02
2023-01-21T05:31:05.103Z,12.27
2023-01-21T05:32:08.093Z,11.85
2023-01-21T05:33:11.209Z,13.65
2023-01-21T05:34:14.330Z,11.57
2023-01-21T05:35:19.494Z,11.52
2023-01-21T05:36:22.747Z,12.77
2023-01-21T05:37:25.856Z,12.05
2023-01-21T05:38:48.911Z,12.88
2023-01-21T05:39:52.063Z,12.18
2023-01-21T05:41:02.582Z,11.38
2023-01-21T05:42:05.704Z,10.63
2023-01-21T05:43:08.827Z,12.23
2023-01-21T05:44:11.946Z,12.02
2023-01-21T05:45:15.549Z,13.05
2023-01-21T05:46:18.693Z,11.07
2023-01-21T05:47:21.795Z,12.50
2023-01-21T05:48:25.155Z,11.73
2023-01-21T05:49:28.277Z,10.65
2023-01-21T05:50:32.979Z,12.60
2023-01-21T05:51:36.115Z,10.75
2023-01-21T05:52:39.923Z,11.98
2023-01-21T05:53:43.163Z,11.57
2023-01-21T05:55:00.652Z,11.40
2023-01-21T05:56:05.491Z,10.13
2023-01-21T05:57:08.613Z,11.60
2023-01-21T05:58:11.969Z,12.57
2023-01-21T05:59:15.212Z,12.93
2023-01-21T06:00:19.335Z,12.07
2023-01-21T06:01:23.023Z,11.77
2023-01-21T06:02:26.322Z,13.32
2023-01-21T06:03:29.766Z,12.02
2023-01-21T06:04:32.739Z,11.32
2023-01-21T06:05:35.504Z,12.32
2023-01-21T06:06:38.386Z,14.63
2023-01-21T06:07:41.032Z,12.40
2023-01-21T06:08:43.909Z,11.48
2023-01-21T06:09:46.667Z,12.27
2023-01-21T06:10:49.681Z,12.18
2023-01-21T06:11:52.315Z,15.45
2023-01-21T06:12:55.081Z,13.15
2023-01-21T06:13:57.615Z,12.48
2023-01-21T06:15:00.648Z,12.57
2023-01-21T06:16:03.318Z,11.52
2023-01-21T06:17:05.808Z,11.25
2023-01-21T06:18:08.816Z,12.55
2023-01-21T06:19:11.413Z,11.95
2023-01-21T06:20:14.213Z,13.38
2023-01-21T06:21:16.750Z,13.13
2023-01-21T06:22:24.200Z,11.63
2023-01-21T06:23:27.970Z,12.90
2023-01-21T06:24:30.737Z,12.60
2023-01-21T06:25:34.464Z,12.52
2023-01-21T06:26:37.013Z,12.68
2023-01-21T06:27:39.792Z,13.07
2023-01-21T06:28:42.669Z,11.60
2023-01-21T06:29:45.308Z,13.32
2023-01-21T06:30:47.996Z,11.98
2023-01-21T06:31:50.850Z,12.65
2023-01-21T06:32:53.717Z,12.43
2023-01-21T06:33:56.189Z,12.88
2023-01-21T06:34:58.862Z,12.00
2023-01-21T06:36:01.382Z,12.77
2023-01-21T06:37:04.023Z,11.93
2023-01-21T06:38:06.543Z,14.00
2023-01-21T06:39:12.086Z,11.63
2023-01-21T06:40:15.490Z,12.23
2023-01-21T06:41:18.302Z,12.63
2023-01-21T06:42:21.066Z,11.13
2023-01-21T06:43:23.592Z,13.40
2023-01-21T06:44:26.109Z,13.90
2023-01-21T06:45:28.745Z,13.35
2023-01-21T06:46:31.428Z,13.48
2023-01-21T06:47:34.034Z,11.55
2023-01-21T06:48:36.676Z,11.18
2023-01-21T06:49:39.677Z,13.18
2023-01-21T06:50:42.194Z,12.55
2023-01-21T06:51:44.711Z,13.85
2023-01-21T06:52:48.801Z,14.32
2023-01-21T06:53:51.433Z,13.05
2023-01-21T06:54:53.951Z,14.55
2023-01-21T06:55:56.474Z,13.05
2023-01-21T06:56:59.248Z,13.35
2023-01-21T06:58:01.752Z,13.02
2023-01-21T06:59:04.878Z,12.40
2023-01-21T07:00:08.743Z,13.88
2023-01-21T07:01:11.245Z,14.00
2023-01-21T07:02:13.767Z,12.40
2023-01-21T07:03:16.281Z,12.38
2023-01-21T07:04:18.800Z,13.60
2023-01-21T07:05:21.236Z,12.20
2023-01-21T07:06:23.734Z,13.00
2023-01-21T07:07:26.754Z,13.10
2023-01-21T07:08:29.249Z,12.52
2023-01-21T07:09:32.128Z,15.25
2023-01-21T07:10:34.648Z,12.82
2023-01-21T07:11:37.298Z,12.25
2023-01-21T07:12:39.816Z,13.95
2023-01-21T07:13:42.334Z,12.23
2023-01-21T07:14:44.855Z,13.15
2023-01-21T07:15:48.037Z,12.30
2023-01-21T07:16:50.756Z,12.75
2023-01-21T07:17:54.462Z,11.38
2023-01-21T07:18:57.102Z,12.38
2023-01-21T07:19:59.869Z,14.75
2023-01-21T07:21:02.627Z,14.40
2023-01-21T07:22:05.169Z,12.07
2023-01-21T07:23:08.394Z,11.85
2023-01-21T07:24:12.358Z,12.02
2023-01-21T07:25:15.555Z,11.90
2023-01-21T07:26:19.318Z,11.50
2023-01-21T07:27:24.244Z,12.77
2023-01-21T07:28:27.239Z,11.80
2023-01-21T07:29:30.119Z,11.20
2023-01-21T07:30:33.122Z,13.02
2023-01-21T07:31:36.371Z,13.05
2023-01-21T07:32:39.488Z,11.85
2023-01-21T07:33:42.609Z,10.90
2023-01-21T07:34:45.731Z,11.70
2023-01-21T07:35:48.847Z,11.25
2023-01-21T07:36:52.330Z,10.20
2023-01-21T07:37:55.458Z,11.57
2023-01-21T07:38:58.821Z,11.88
2023-01-21T07:40:01.942Z,10.85
2023-01-21T07:41:05.064Z,11.70
2023-01-21T07:42:10.471Z,12.90
2023-01-21T07:43:13.584Z,10.93
2023-01-21T07:44:16.716Z,11.02
2023-01-21T07:45:20.786Z,11.25
2023-01-21T07:46:24.441Z,11.50
2023-01-21T07:47:27.631Z,10.73
2023-01-21T07:48:30.870Z,12.82
2023-01-21T07:49:33.995Z,12.38
2023-01-21T07:50:37.833Z,12.82
2023-01-21T07:51:41.079Z,12.68
2023-01-21T07:52:44.197Z,12.40
2023-01-21T07:53:47.811Z,13.93
2023-01-21T07:54:51.048Z,11.77
2023-01-21T07:55:54.283Z,12.60
2023-01-21T07:56:57.526Z,13.77
2023-01-21T07:58:00.905Z,14.07
2023-01-21T07:59:04.247Z,13.68
2023-01-21T08:00:08.811Z,13.00
2023-01-21T08:01:14.692Z,12.82
2023-01-21T08:02:18.201Z,12.60
2023-01-21T08:03:23.577Z,12.93
2023-01-21T08:04:26.816Z,14.77
2023-01-21T08:05:29.939Z,13.88
2023-01-21T08:06:32.820Z,14.63
2023-01-21T08:07:35.941Z,13.55
2023-01-21T08:08:38.823Z,12.85
2023-01-21T08:09:41.829Z,12.15
2023-01-21T08:10:44.830Z,14.52
2023-01-21T08:11:47.590Z,14.00
2023-01-21T08:12:50.356Z,15.32
2023-01-21T08:13:53.112Z,14.85
2023-01-21T08:14:55.757Z,12.88
2023-01-21T08:15:58.695Z,14.27
2023-01-21T08:17:01.996Z,13.25
2023-01-21T08:18:04.641Z,13.23
2023-01-21T08:19:07.208Z,12.40
2023-01-21T08:20:11.289Z,14.02
2023-01-21T08:21:13.814Z,14.38
2023-01-21T08:22:16.334Z,13.73
2023-01-21T08:23:18.854Z,12.15
2023-01-21T08:24:21.733Z,14.00
2023-01-21T08:25:24.221Z,12.85
2023-01-21T08:26:26.895Z,14.75
2023-01-21T08:27:29.412Z,12.43
2023-01-21T08:28:31.898Z,12.70
2023-01-21T08:29:34.575Z,14.23
2023-01-21T08:30:37.248Z,14.98
2023-01-21T08:31:39.926Z,13.73
2023-01-21T08:32:42.496Z,12.30
2023-01-21T08:33:45.407Z,15.82
2023-01-21T08:34:47.866Z,14.23
2023-01-21T08:35:50.419Z,13.55
2023-01-21T08:36:53.033Z,16.08
2023-01-21T08:37:57.623Z,14.25
2023-01-21T08:39:02.104Z,12.75
2023-01-21T08:40:04.956Z,14.18
2023-01-21T08:41:07.679Z,13.90
2023-01-21T08:42:10.341Z,15.93
2023-01-21T08:43:13.228Z,15.52
2023-01-21T08:44:15.871Z,14.25
2023-01-21T08:45:18.918Z,13.98
2023-01-21T08:46:21.747Z,14.45
2023-01-21T08:47:25.496Z,16.00
2023-01-21T08:48:29.924Z,15.88
2023-01-21T08:49:35.204Z,14.93
2023-01-21T08:50:38.082Z,15.05
2023-01-21T08:51:41.686Z,14.43
2023-01-21T08:52:51.154Z,14.10
2023-01-21T08:53:53.799Z,14.05
2023-01-21T08:54:56.311Z,13.48
2023-01-21T08:56:03.639Z,14.02
2023-01-21T08:57:06.519Z,14.05
2023-01-21T08:58:09.169Z,14.77
2023-01-21T08:59:11.674Z,12.90
2023-01-21T09:00:14.673Z,13.48
2023-01-21T09:01:17.218Z,15.57
2023-01-21T09:02:19.904Z,13.05
2023-01-21T09:03:22.719Z,14.60
2023-01-21T09:04:25.245Z,13.60
2023-01-21T09:05:27.756Z,13.95
2023-01-21T09:06:30.648Z,13.68
2023-01-21T09:07:33.167Z,14.18
2023-01-21T09:08:36.642Z,14.00
2023-01-21T09:09:39.163Z,14.63
2023-01-21T09:11:00.534Z,12.85
2023-01-21T09:12:04.871Z,12.95
2023-01-21T09:13:08.951Z,12.98
2023-01-21T09:14:11.708Z,13.63
2023-01-21T09:15:14.634Z,14.85
2023-01-21T09:16:20.602Z,14.57
2023-01-21T09:17:23.581Z,14.70
2023-01-21T09:18:26.217Z,15.30
2023-01-21T09:19:29.100Z,12.43
2023-01-21T09:20:31.758Z,13.65
2023-01-21T09:21:37.995Z,13.13
2023-01-21T09:22:40.506Z,13.90
2023-01-21T09:23:43.277Z,15.43
2023-01-21T09:24:46.037Z,14.30
2023-01-21T09:25:48.670Z,15.27
2023-01-21T09:26:51.671Z,13.40
2023-01-21T09:27:54.570Z,14.55
2023-01-21T09:28:59.356Z,15.05
2023-01-21T09:30:02.360Z,13.88
2023-01-21T09:31:08.603Z,14.88
2023-01-21T09:32:11.480Z,15.40
2023-01-21T09:33:15.811Z,15.52
2023-01-21T09:34:18.803Z,15.45
2023-01-21T09:35:21.935Z,15.43
2023-01-21T09:36:28.410Z,15.10
2023-01-21T09:37:35.014Z,16.02
2023-01-21T09:38:38.251Z,15.00
2023-01-21T09:39:41.374Z,15.20
2023-01-21T09:40:46.417Z,14.65
2023-01-21T09:41:55.656Z,13.10
2023-01-21T09:43:03.458Z,14.52
2023-01-21T09:44:15.461Z,15.23
2023-01-21T09:45:20.621Z,13.88
2023-01-21T09:46:32.625Z,13.95
2023-01-21T09:47:41.987Z,15.27
2023-01-21T09:48:47.630Z,14.52
2023-01-21T09:49:55.708Z,12.93
2023-01-21T09:51:03.772Z,14.65
2023-01-21T09:52:43.914Z,13.05
2023-01-21T09:53:53.395Z,13.10
2023-01-21T09:54:58.706Z,11.93
2023-01-21T09:56:11.519Z,13.82
2023-01-21T09:57:23.526Z,13.23
2023-01-21T09:58:35.163Z,13.18
2023-01-21T09:59:47.897Z,14.93
2023-01-21T10:01:17.433Z,13.98
2023-01-21T10:02:54.133Z,12.10
2023-01-21T10:04:06.016Z,12.13
2023-01-21T10:05:40.340Z,12.68
2023-01-21T10:06:51.857Z,12.63
2023-01-21T10:08:06.141Z,11.90
2023-01-21T10:09:42.382Z,12.20
2023-01-21T10:10:56.307Z,12.02
2023-01-21T10:12:13.346Z,12.40
2023-01-21T10:13:25.378Z,12.10
2023-01-21T10:14:36.868Z,11.50
2023-01-21T10:15:49.241Z,13.57
2023-01-21T10:17:12.327Z,13.48
2023-01-21T10:18:20.314Z,11.32
2023-01-21T10:19:28.528Z,11.52
2023-01-21T10:20:44.490Z,13.65
2023-01-21T10:21:51.098Z,11.77
2023-01-21T10:23:04.415Z,11.80
2023-01-21T10:24:12.404Z,11.80
2023-01-21T10:25:30.234Z,12.73
2023-01-21T10:26:34.729Z,11.70
2023-01-21T10:27:38.570Z,11.40
2023-01-21T10:28:47.931Z,13.20
2023-01-21T10:29:57.654Z,12.43
2023-01-21T10:31:11.841Z,13.55
2023-01-21T10:32:18.788Z,11.30
2023-01-21T10:33:25.306Z,11.45
2023-01-21T10:34:32.614Z,11.75
2023-01-21T10:35:46.143Z,9.50
2023-01-21T10:36:59.626Z,10.63
2023-01-21T10:38:16.416Z,9.75
2023-01-21T10:39:43.071Z,10.35
2023-01-21T10:41:08.740Z,10.15
2023-01-21T10:42:37.759Z,9.80
2023-01-21T10:43:55.068Z,9.77
2023-01-21T10:44:57.705Z,10.15
2023-01-21T10:46:31.665Z,9.63
2023-01-21T10:47:36.948Z,10.10
2023-01-21T10:48:46.904Z,10.23
2023-01-21T10:50:46.457Z,10.53
2023-01-21T10:52:34.441Z,9.32
2023-01-21T10:54:18.130Z,8.85
2023-01-21T10:55:57.950Z,8.55
2023-01-21T10:57:21.830Z,9.52
2023-01-21T10:58:36.115Z,8.02
2023-01-21T10:59:40.325Z,8.13
2023-01-21T11:00:48.715Z,8.75
2023-01-21T11:02:02.753Z,9.35
2023-01-21T11:03:16.922Z,8.05
2023-01-21T11:04:24.256Z,7.90
2023-01-21T11:05:27.368Z,8.07
2023-01-21T11:06:33.614Z,8.60
2023-01-21T11:07:40.081Z,9.23
2023-01-21T11:08:45.727Z,7.57
2023-01-21T11:09:49.207Z,8.30
2023-01-21T11:10:56.171Z,9.55
2023-01-21T11:11:58.806Z,8.55
2023-01-21T11:13:01.333Z,8.05
2023-01-21T11:14:03.848Z,9.15
2023-01-21T11:15:20.451Z,8.80
2023-01-21T11:16:45.040Z,7.45
2023-01-21T11:17:50.533Z,8.68
2023-01-21T11:18:54.023Z,9.85
2023-01-21T11:20:01.470Z,9.05
2023-01-21T11:21:19.577Z,8.02
2023-01-21T11:22:23.567Z,8.85
2023-01-21T11:23:31.473Z,8.52
2023-01-21T11:24:51.662Z,8.57
2023-01-21T11:26:10.260Z,9.55
2023-01-21T11:27:28.850Z,8.15
2023-01-21T11:28:31.948Z,9.43
2023-01-21T11:29:41.432Z,8.82
2023-01-21T11:30:51.131Z,8.13
2023-01-21T11:32:05.474Z,8.15
2023-01-21T11:33:13.597Z,7.97
2023-01-21T11:34:17.921Z,9.50
2023-01-21T11:35:23.320Z,9.23
2023-01-21T11:36:26.442Z,10.10
2023-01-21T11:37:31.724Z,8.25
2023-01-21T11:38:36.533Z,8.52
2023-01-21T11:39:56.326Z,8.60
2023-01-21T11:41:10.836Z,9.00
2023-01-21T11:42:17.455Z,7.38
2023-01-21T11:43:46.017Z,8.32
2023-01-21T11:45:22.377Z,8.75
2023-01-21T11:46:36.899Z,7.95
2023-01-21T11:47:50.220Z,8.30
2023-01-21T11:49:16.389Z,8.43
2023-01-21T11:50:26.596Z,7.35
2023-01-21T11:51:29.825Z,7.60
2023-01-21T11:52:32.951Z,7.25
2023-01-21T11:53:36.071Z,7.88
2023-01-21T11:54:40.755Z,6.80
2023-01-21T11:55:53.844Z,7.68
2023-01-21T11:57:00.435Z,7.00
2023-01-21T11:58:03.798Z,9.80
2023-01-21T11:59:42.203Z,7.72
2023-01-21T12:00:47.863Z,7.85
2023-01-21T12:01:59.125Z,8.15
2023-01-21T12:03:06.331Z,7.47
2023-01-21T12:04:15.935Z,7.68
2023-01-21T12:05:43.532Z,7.53
2023-01-21T12:06:49.055Z,7.25
2023-01-21T12:07:53.016Z,9.27
2023-01-21T12:09:02.740Z,8.82
2023-01-21T12:10:27.697Z,8.70
2023-01-21T12:11:31.902Z,8.80
2023-01-21T12:12:53.384Z,6.72
2023-01-21T12:14:15.468Z,8.38
2023-01-21T12:15:25.427Z,7.78
2023-01-21T12:16:33.724Z,7.25
2023-01-21T12:17:56.631Z,8.23
2023-01-21T12:19:17.996Z,8.00
2023-01-21T12:20:29.161Z,7.55
2023-01-21T12:21:43.680Z,8.00
2023-01-21T12:23:01.498Z,7.55
2023-01-21T12:24:06.647Z,7.35
2023-01-21T12:25:46.208Z,7.40
2023-01-21T12:26:56.285Z,7.05
2023-01-21T12:28:15.294Z,7.45
2023-01-21T12:29:39.058Z,6.80
2023-01-21T12:31:14.287Z,7.03
2023-01-21T12:32:43.252Z,7.03
2023-01-21T12:33:52.014Z,6.95
2023-01-21T12:35:08.822Z,6.72
2023-01-21T12:36:19.383Z,7.53
2023-01-21T12:37:55.016Z,7.10
2023-01-21T12:39:09.541Z,7.72
2023-01-21T12:40:33.059Z,8.18
2023-01-21T12:41:38.457Z,8.65
2023-01-21T12:42:48.058Z,7.47
2023-01-21T12:44:12.059Z,7.40
2023-01-21T12:45:19.869Z,7.90
2023-01-21T12:46:35.297Z,6.25
2023-01-21T12:47:46.845Z,7.13
2023-01-21T12:49:12.431Z,7.45
2023-01-21T12:50:17.563Z,7.15
2023-01-21T12:51:38.710Z,8.73
2023-01-21T12:53:06.673Z,7.88
2023-01-21T12:54:23.712Z,7.32
2023-01-21T12:55:51.067Z,8.00
2023-01-21T12:57:34.874Z,7.30
2023-01-21T12:58:45.309Z,6.90
2023-01-21T13:00:00.799Z,7.60
2023-01-21T13:01:13.358Z,7.13
2023-01-21T13:02:18.702Z,7.05
2023-01-21T13:03:37.517Z,8.30
2023-01-21T13:05:08.966Z,7.38
2023-01-21T13:06:29.726Z,7.25
2023-01-21T13:07:56.963Z,7.68
2023-01-21T13:09:16.160Z,6.85
2023-01-21T13:10:39.315Z,7.18
2023-01-21T13:12:11.369Z,6.57
2023-01-21T13:13:28.936Z,7.13
2023-01-21T13:14:39.083Z,6.50
2023-01-21T13:15:45.563Z,6.90
2023-01-21T13:16:53.368Z,7.40
2023-01-21T13:18:02.157Z,7.88
2023-01-21T13:19:04.897Z,8.52
2023-01-21T13:20:18.510Z,7.70
2023-01-21T13:21:47.857Z,7.32
2023-01-21T13:23:07.418Z,7.28
2023-01-21T13:24:43.419Z,7.47
2023-01-21T13:26:00.164Z,7.78
2023-01-21T13:27:15.593Z,7.88
2023-01-21T13:28:26.990Z,8.13
2023-01-21T13:30:09.952Z,7.88
2023-01-21T13:31:17.867Z,7.03
2023-01-21T13:32:59.874Z,7.50
2023-01-21T13:34:39.313Z,8.80
2023-01-21T13:35:47.998Z,7.28
2023-01-21T13:36:59.999Z,7.40
2023-01-21T13:38:42.613Z,7.82
2023-01-21T13:39:55.445Z,8.32
2023-01-21T13:41:38.532Z,9.27
2023-01-21T13:42:56.181Z,7.65
2023-01-21T13:44:20.772Z,7.90
2023-01-21T13:45:38.915Z,8.30
2023-01-21T13:46:59.776Z,8.18
2023-01-21T13:48:41.910Z,7.85
2023-01-21T13:50:18.108Z,8.27
2023-01-21T13:51:33.503Z,7.30
2023-01-21T13:52:42.634Z,8.88
2023-01-21T13:53:58.011Z,8.07
2023-01-21T13:55:14.430Z,8.25
2023-01-21T13:56:27.392Z,7.55
2023-01-21T13:57:39.275Z,8.57
2023-01-21T13:59:01.238Z,8.60
2023-01-21T14:00:29.198Z,9.50
2023-01-21T14:01:46.322Z,8.63
2023-01-21T14:03:16.963Z,9.20
2023-01-21T14:04:59.206Z,8.85
2023-01-21T14:06:11.448Z,8.18
2023-01-21T14:07:30.410Z,7.57
2023-01-21T14:08:43.850Z,9.10
2023-01-21T14:09:57.056Z,8.35
2023-01-21T14:11:09.656Z,9.27
2023-01-21T14:12:31.857Z,8.63
2023-01-21T14:14:08.102Z,9.50
2023-01-21T14:15:38.224Z,8.43
2023-01-21T14:16:55.869Z,9.27
2023-01-21T14:18:16.920Z,9.60
2023-01-21T14:20:53.537Z,8.05
2023-01-21T14:22:23.406Z,8.73
2023-01-21T14:23:28.516Z,9.05
2023-01-21T14:24:33.917Z,9.32
2023-01-21T14:25:55.045Z,7.57
2023-01-21T14:27:22.051Z,8.60
2023-01-21T14:28:41.607Z,7.95
2023-01-21T14:30:13.452Z,8.13
2023-01-21T14:31:33.313Z,8.73
2023-01-21T14:32:50.733Z,9.07
2023-01-21T14:34:00.837Z,8.70
2023-01-21T14:35:13.946Z,9.00
2023-01-21T14:36:20.138Z,7.97
2023-01-21T14:37:34.934Z,8.77
2023-01-21T14:38:52.216Z,9.02
2023-01-21T14:40:30.377Z,9.65
2023-01-21T14:41:54.592Z,7.38
2023-01-21T14:42:58.010Z,9.38
2023-01-21T14:44:00.617Z,10.93
2023-01-21T14:45:08.075Z,9.23
2023-01-21T14:46:23.906Z,9.48
2023-01-21T14:47:29.421Z,9.95
2023-01-21T14:48:39.741Z,10.88
2023-01-21T14:49:45.631Z,10.25
2023-01-21T14:50:53.719Z,10.15
2023-01-21T14:51:56.306Z,10.52